createdAt,value
2023-01-29T00:01:45.954Z,24.80
2023-01-29T00:06:47.997Z,22.88
2023-01-29T00:11:49.739Z,21.00
2023-01-29T00:16:51.447Z,22.13
2023-01-29T00:21:53.127Z,22.67
2023-01-29T00:26:54.760Z,22.33
2023-01-29T00:31:56.523Z,21.08
2023-01-29T00:37:04.891Z,22.88
2023-01-29T00:42:25.204Z,25.55
2023-01-29T00:47:36.566Z,20.92
2023-01-29T00:52:38.794Z,20.75
2023-01-29T00:57:40.447Z,18.52
2023-01-29T01:03:00.796Z,19.77
2023-01-29T01:08:02.496Z,18.08
2023-01-29T01:13:06.382Z,21.98
2023-01-29T01:18:08.061Z,20.13
2023-01-29T01:23:09.710Z,19.05
2023-01-29T01:28:11.391Z,16.75
2023-01-29T01:33:13.318Z,20.15
2023-01-29T01:38:14.951Z,15.45
2023-01-29T01:43:16.596Z,18.38
2023-01-29T01:48:24.217Z,19.17
2023-01-29T01:54:07.062Z,21.15
2023-01-29T01:59:12.111Z,20.95
2023-01-29T02:04:40.407Z,17.23
2023-01-29T02:09:46.957Z,16.65
2023-01-29T02:20:14.621Z,17.88
2023-01-29T02:25:41.154Z,15.38
2023-01-29T02:36:15.171Z,17.38
2023-01-29T02:41:40.564Z,20.08
2023-01-29T02:46:48.203Z,18.38
2023-01-29T02:52:15.118Z,18.70
2023-01-29T02:57:48.719Z,17.92
2023-01-29T03:03:12.882Z,15.27
2023-01-29T03:08:20.541Z,17.40
2023-01-29T03:13:32.245Z,17.27
2023-01-29T03:18:43.804Z,18.17
2023-01-29T03:24:03.973Z,16.48
2023-01-29T03:29:27.789Z,19.52
2023-01-29T03:34:35.287Z,16.75
2023-01-29T03:39:37.112Z,16.85
2023-01-29T03:44:49.033Z,15.75
2023-01-29T03:50:00.945Z,19.63
2023-01-29T03:55:15.584Z,17.48
2023-01-29T04:00:27.972Z,18.98
2023-01-29T04:05:34.586Z,16.30
2023-01-29T04:15:48.244Z,13.18
2023-01-29T04:20:50.253Z,13.82
2023-01-29T04:26:14.446Z,14.68
2023-01-29T04:31:17.019Z,14.13
2023-01-29T04:36:41.653Z,16.40
2023-01-29T04:41:54.400Z,15.65
2023-01-29T04:47:08.279Z,10.98
2023-01-29T04:52:19.805Z,13.50
2023-01-29T04:57:32.097Z,12.70
2023-01-29T05:02:36.353Z,12.15
2023-01-29T05:07:39.516Z,17.15
2023-01-29T05:12:45.921Z,16.88
2023-01-29T05:17:47.846Z,16.38
2023-01-29T05:22:49.630Z,17.13
2023-01-29T05:28:05.489Z,17.75
2023-01-29T05:33:16.896Z,16.13
2023-01-29T05:38:20.187Z,16.40
2023-01-29T05:43:25.418Z,15.18
2023-01-29T05:48:29.174Z,19.45
2023-01-29T05:53:31.742Z,19.33
2023-01-29T05:58:34.251Z,18.55
2023-01-29T06:03:35.887Z,16.95
2023-01-29T06:08:37.606Z,17.42
2023-01-29T06:13:39.643Z,15.73
2023-01-29T06:18:41.939Z,16.75
2023-01-29T06:23:43.568Z,17.58
2023-01-29T06:28:48.415Z,19.13
2023-01-29T06:33:50.073Z,13.90
2023-01-29T06:38:51.709Z,22.45
2023-01-29T06:43:53.444Z,16.08
2023-01-29T06:48:58.832Z,16.48
2023-01-29T06:54:00.563Z,15.65
2023-01-29T06:59:02.752Z,17.20
2023-01-29T07:04:04.604Z,18.65
2023-01-29T07:09:06.357Z,16.08
2023-01-29T07:14:08.227Z,15.77
2023-01-29T07:19:09.931Z,15.10
2023-01-29T07:24:11.725Z,17.70
2023-01-29T07:29:13.438Z,18.27
2023-01-29T07:34:15.097Z,17.70
2023-01-29T07:39:16.782Z,19.00
2023-01-29T07:44:18.485Z,36.25
2023-01-29T07:49:20.279Z,33.17
2023-01-29T07:54:21.947Z,28.95
2023-01-29T07:59:23.684Z,26.55
2023-01-29T08:04:25.558Z,31.48
2023-01-29T08:09:27.208Z,27.58
2023-01-29T08:14:28.863Z,24.38
2023-01-29T08:19:30.605Z,26.02
2023-01-29T08:24:47.444Z,25.38
2023-01-29T08:29:54.510Z,21.70
2023-01-29T08:34:56.178Z,15.43
2023-01-29T08:39:57.976Z,16.13
2023-01-29T08:44:59.728Z,15.10
2023-01-29T08:50:01.376Z,17.23
2023-01-29T08:55:03.173Z,15.45
2023-01-29T09:00:07.517Z,15.55
2023-01-29T09:05:10.300Z,14.55
2023-01-29T09:10:12.516Z,12.25
2023-01-29T09:15:14.286Z,12.73
2023-01-29T09:20:16.397Z,13.10
2023-01-29T09:25:18.616Z,14.02
2023-01-29T09:30:20.661Z,11.68
2023-01-29T09:35:23.825Z,13.38
2023-01-29T09:40:34.695Z,13.63
2023-01-29T09:45:37.190Z,12.25
2023-01-29T09:50:43.725Z,10.70
2023-01-29T09:56:02.811Z,15.18
2023-01-29T10:01:19.442Z,11.93
2023-01-29T10:06:47.966Z,8.75
2023-01-29T10:12:08.207Z,11.93
2023-01-29T10:17:35.058Z,9.75
2023-01-29T10:22:53.796Z,12.95
2023-01-29T10:27:58.830Z,10.68
2023-01-29T10:33:06.129Z,11.45
2023-01-29T10:38:33.851Z,12.18
2023-01-29T10:43:44.887Z,12.50
2023-01-29T10:49:00.535Z,15.70
2023-01-29T10:54:20.457Z,14.90
2023-01-29T10:59:31.111Z,12.13
2023-01-29T11:04:35.415Z,12.45
2023-01-29T11:09:47.961Z,12.77
2023-01-29T11:15:07.099Z,12.43
2023-01-29T11:20:27.245Z,12.18
2023-01-29T11:25:32.780Z,14.32
2023-01-29T11:30:43.429Z,12.50
2023-01-29T11:35:45.687Z,12.43
2023-01-29T11:40:47.962Z,11.98
2023-01-29T11:45:53.704Z,10.93
2023-01-29T11:51:00.684Z,10.37
2023-01-29T11:56:07.332Z,12.30
2023-01-29T12:06:22.859Z,13.32
2023-01-29T12:11:35.633Z,11.20
2023-01-29T12:17:03.567Z,10.95
2023-01-29T12:22:25.118Z,12.77
2023-01-29T12:27:59.432Z,12.75
2023-01-29T12:33:15.108Z,11.02
2023-01-29T12:38:23.023Z,14.53
2023-01-29T12:43:48.272Z,9.88
2023-01-29T12:48:51.313Z,10.57
2023-01-29T12:53:59.899Z,11.20
2023-01-29T12:59:10.123Z,11.75
2023-01-29T13:04:30.937Z,11.43
2023-01-29T13:09:35.454Z,10.63
2023-01-29T13:14:53.247Z,13.73
2023-01-29T13:20:00.806Z,12.02
2023-01-29T13:25:05.680Z,12.27
2023-01-29T13:30:08.929Z,12.77
2023-01-29T13:35:16.003Z,12.60
2023-01-29T13:40:25.943Z,11.98
2023-01-29T13:45:33.510Z,12.05
2023-01-29T13:50:41.508Z,14.85
2023-01-29T13:55:44.103Z,11.93
2023-01-29T14:00:48.765Z,11.98
2023-01-29T14:06:03.840Z,10.10
2023-01-29T14:11:21.155Z,13.10
2023-01-29T14:16:22.971Z,12.18
2023-01-29T14:21:38.204Z,14.52
2023-01-29T14:26:44.040Z,14.68
2023-01-29T14:31:56.318Z,11.97
2023-01-29T14:37:03.319Z,14.70
2023-01-29T14:42:36.604Z,14.05
2023-01-29T14:47:38.433Z,13.30
2023-01-29T14:52:43.477Z,12.77
2023-01-29T14:57:46.522Z,14.45
2023-01-29T15:03:01.427Z,15.30
2023-01-29T15:08:10.063Z,19.13
2023-01-29T15:13:15.664Z,16.88
2023-01-29T15:18:42.475Z,16.02
2023-01-29T15:23:45.188Z,16.02
2023-01-29T15:29:03.571Z,16.95
2023-01-29T15:34:07.787Z,14.30
2023-01-29T15:39:09.560Z,13.43
2023-01-29T15:44:17.515Z,13.68
2023-01-29T15:49:29.559Z,7.72
2023-01-29T15:54:34.289Z,15.23
2023-01-29T15:59:43.880Z,16.05
2023-01-29T16:04:46.758Z,13.85
2023-01-29T16:09:50.093Z,12.50
2023-01-29T16:14:56.712Z,17.02
2023-01-29T16:25:20.370Z,17.90
2023-01-29T16:30:28.806Z,14.15
2023-01-29T16:35:33.835Z,16.48
2023-01-29T16:40:38.374Z,14.57
2023-01-29T16:45:40.854Z,18.85
2023-01-29T16:50:54.312Z,20.52
2023-01-29T16:56:05.845Z,15.77
2023-01-29T17:01:11.682Z,18.40
2023-01-29T17:06:21.836Z,15.63
2023-01-29T17:11:40.305Z,14.60
2023-01-29T17:17:02.172Z,17.60
2023-01-29T17:22:07.848Z,16.10
2023-01-29T17:27:22.092Z,15.23
2023-01-29T17:32:43.949Z,13.63
2023-01-29T17:37:49.623Z,16.70
2023-01-29T17:42:52.109Z,15.55
2023-01-29T17:47:54.343Z,14.93
2023-01-29T17:52:56.925Z,13.93
2023-01-29T17:57:59.103Z,12.20
2023-01-29T18:03:02.624Z,14.30
2023-01-29T18:08:05.404Z,15.60
2023-01-29T18:13:07.916Z,16.00
2023-01-29T18:18:23.094Z,14.85
2023-01-29T18:23:26.053Z,14.90
2023-01-29T18:28:28.513Z,16.00
2023-01-29T18:33:31.640Z,15.45
2023-01-29T18:38:34.135Z,14.77
2023-01-29T18:43:37.944Z,12.70
2023-01-29T18:48:43.850Z,14.98
2023-01-29T18:53:52.267Z,14.25
2023-01-29T18:58:57.777Z,11.43
2023-01-29T19:04:03.917Z,14.25
2023-01-29T19:09:06.209Z,14.85
2023-01-29T19:14:09.445Z,13.55
2023-01-29T19:19:12.210Z,13.15
2023-01-29T19:24:14.931Z,15.10
2023-01-29T19:29:17.892Z,13.45
2023-01-29T19:34:20.524Z,15.25
2023-01-29T19:39:23.077Z,15.88
2023-01-29T19:44:26.126Z,17.13
2023-01-29T19:49:31.480Z,19.00
2023-01-29T19:54:34.134Z,14.90
2023-01-29T19:59:36.706Z,16.05
2023-01-29T20:04:40.394Z,15.45
2023-01-29T20:09:43.133Z,15.15
2023-01-29T20:14:49.529Z,14.68
2023-01-29T20:19:51.970Z,16.08
2023-01-29T20:24:56.848Z,14.77
2023-01-29T20:30:00.758Z,16.20
2023-01-29T20:35:03.876Z,17.05
2023-01-29T20:40:06.993Z,15.90
2023-01-29T20:45:11.518Z,15.02
2023-01-29T20:50:16.347Z,14.75
2023-01-29T20:55:19.250Z,35.42
2023-01-29T21:00:22.826Z,30.45
2023-01-29T21:05:25.750Z,23.05
2023-01-29T21:10:28.426Z,19.88
2023-01-29T21:15:31.705Z,19.80
2023-01-29T21:20:35.359Z,15.15
2023-01-29T21:25:38.887Z,14.43
2023-01-29T21:30:40.769Z,15.20
2023-01-29T21:35:42.575Z,15.63
2023-01-29T21:40:44.585Z,15.00
2023-01-29T21:45:47.739Z,13.18
2023-01-29T21:50:49.542Z,16.63
2023-01-29T21:55:51.982Z,15.85
2023-01-29T22:00:53.677Z,14.27
2023-01-29T22:05:55.517Z,15.05
2023-01-29T22:10:57.237Z,15.48
2023-01-29T22:15:59.001Z,14.55
2023-01-29T22:21:02.971Z,17.55
2023-01-29T22:26:06.754Z,13.23
2023-01-29T22:31:08.430Z,13.77
2023-01-29T22:36:10.375Z,17.88
2023-01-29T22:41:12.132Z,15.60
2023-01-29T22:46:14.127Z,18.38
2023-01-29T22:51:15.944Z,15.52
2023-01-29T22:56:18.907Z,13.98
2023-01-29T23:01:22.758Z,14.50
2023-01-29T23:06:24.670Z,13.73
2023-01-29T23:11:26.317Z,14.23
2023-01-29T23:16:28.703Z,15.10
2023-01-29T23:21:30.588Z,14.32
2023-01-29T23:26:50.703Z,12.60
2023-01-29T23:31:52.431Z,14.93
2023-01-29T23:36:54.504Z,12.30
2023-01-29T23:41:56.238Z,14.98
2023-01-29T23:46:58.018Z,14.73
2023-01-29T23:51:59.741Z,17.75
2023-01-29T23:57:01.438Z,14.23
